createdAt,value
2018-11-26T00:00:02.493Z,6.81
2018-11-26T00:02:49.547Z,6.62
2018-11-26T00:05:36.707Z,7.34
2018-11-26T00:08:23.714Z,6.76
2018-11-26T00:11:35.659Z,6.62
2018-11-26T00:14:38.261Z,6.56
2018-11-26T00:17:25.494Z,6.45
2018-11-26T00:20:13.627Z,6.42
2018-11-26T00:23:00.985Z,6.37
2018-11-26T00:25:48.138Z,6.39
2018-11-26T00:28:35.408Z,6.38
2018-11-26T00:31:23.325Z,7.11
2018-11-26T00:34:10.617Z,6.62
2018-11-26T00:36:57.901Z,7.28
2018-11-26T00:39:45.314Z,6.71
2018-11-26T00:42:32.589Z,6.55
2018-11-26T00:45:20.125Z,7.27
2018-11-26T00:48:07.168Z,6.71
2018-11-26T00:50:54.875Z,6.57
2018-11-26T00:53:42.134Z,6.54
2018-11-26T00:56:30.020Z,7.25
2018-11-26T00:59:17.330Z,7.44
2018-11-26T01:02:04.620Z,6.71
2018-11-26T01:04:52.146Z,6.57
2018-11-26T01:07:39.451Z,7.26
2018-11-26T01:10:26.956Z,6.68
2018-11-26T01:13:14.273Z,6.52
2018-11-26T01:16:01.325Z,6.42
2018-11-26T01:18:48.484Z,6.40
2018-11-26T01:21:35.561Z,6.39
2018-11-26T01:24:23.060Z,6.33
2018-11-26T01:27:10.462Z,6.31
2018-11-26T01:29:57.684Z,6.29
2018-11-26T01:32:45.016Z,6.28
2018-11-26T01:35:32.483Z,6.96
2018-11-26T01:41:25.489Z,6.41
2018-11-26T01:44:12.864Z,6.38
2018-11-26T01:47:01.411Z,6.32
2018-11-26T01:49:48.712Z,6.30
2018-11-26T01:52:36.509Z,6.30
2018-11-26T01:55:24.963Z,6.25
2018-11-26T01:58:12.497Z,6.20
2018-11-26T02:01:00.481Z,6.19
2018-11-26T02:03:48.380Z,6.19
2018-11-26T02:06:36.267Z,6.17
2018-11-26T02:09:23.814Z,6.15
2018-11-26T02:12:11.689Z,6.16
2018-11-26T02:15:02.667Z,6.12
2018-11-26T02:17:49.887Z,6.12
2018-11-26T02:20:36.800Z,6.09
2018-11-26T02:23:23.971Z,6.11
2018-11-26T02:26:12.218Z,6.07
2018-11-26T02:28:59.494Z,6.11
2018-11-26T02:31:47.182Z,6.13
2018-11-26T02:34:34.588Z,6.14
2018-11-26T02:37:25.689Z,6.09
2018-11-26T02:40:12.946Z,6.05
2018-11-26T02:43:00.231Z,6.08
2018-11-26T02:45:47.613Z,6.09
2018-11-26T02:48:35.249Z,6.07
2018-11-26T02:51:22.763Z,6.01
2018-11-26T02:54:10.066Z,6.03
2018-11-26T02:56:57.541Z,6.01
2018-11-26T02:59:45.600Z,6.03
2018-11-26T03:02:33.119Z,6.02
2018-11-26T03:05:20.742Z,6.00
2018-11-26T03:08:08.164Z,6.03
2018-11-26T03:10:56.141Z,6.02
2018-11-26T03:13:43.602Z,6.03
2018-11-26T03:16:30.465Z,6.03
2018-11-26T03:19:17.538Z,5.96
2018-11-26T03:22:04.723Z,5.97
2018-11-26T03:24:52.240Z,5.98
2018-11-26T03:27:39.704Z,6.00
2018-11-26T03:30:27.162Z,5.96
2018-11-26T03:33:14.749Z,5.97
2018-11-26T03:36:01.869Z,5.97
2018-11-26T03:38:49.244Z,5.94
2018-11-26T03:41:36.519Z,6.65
2018-11-26T03:44:24.089Z,6.15
2018-11-26T03:47:11.638Z,6.05
2018-11-26T03:49:59.182Z,6.73
2018-11-26T03:52:46.253Z,6.16
2018-11-26T03:55:33.879Z,5.98
2018-11-26T04:01:28.007Z,5.80
2018-11-26T04:04:16.345Z,5.71
2018-11-26T04:07:03.848Z,5.66
2018-11-26T04:09:51.126Z,5.66
2018-11-26T04:12:38.521Z,5.56
2018-11-26T04:15:26.034Z,5.54
2018-11-26T04:18:13.359Z,5.51
2018-11-26T04:21:00.787Z,5.49
2018-11-26T04:23:48.099Z,5.46
2018-11-26T04:26:35.295Z,5.31
2018-11-26T04:29:22.367Z,5.24
2018-11-26T04:32:11.117Z,5.20
2018-11-26T04:34:58.239Z,5.17
2018-11-26T04:37:46.341Z,5.89
2018-11-26T04:40:33.855Z,5.30
2018-11-26T04:43:20.830Z,5.15
2018-11-26T04:46:08.052Z,5.10
2018-11-26T04:48:55.415Z,5.00
2018-11-26T04:51:42.897Z,5.01
2018-11-26T04:54:30.246Z,4.92
2018-11-26T04:57:17.829Z,4.91
2018-11-26T05:00:04.934Z,4.92
2018-11-26T05:02:52.067Z,4.89
2018-11-26T05:05:39.606Z,4.84
2018-11-26T05:08:27.111Z,4.86
2018-11-26T05:11:14.541Z,5.63
2018-11-26T05:14:01.693Z,5.00
2018-11-26T05:16:49.889Z,4.92
2018-11-26T05:19:38.153Z,4.86
2018-11-26T05:22:26.284Z,4.82
2018-11-26T05:25:15.014Z,5.60
2018-11-26T05:28:03.919Z,5.10
2018-11-26T05:30:51.196Z,4.95
2018-11-26T05:33:38.901Z,4.90
2018-11-26T05:36:26.220Z,4.82
2018-11-26T05:39:13.981Z,4.80
2018-11-26T05:42:02.708Z,4.71
2018-11-26T05:44:50.640Z,4.68
2018-11-26T05:47:38.967Z,4.63
2018-11-26T05:50:30.861Z,4.61
2018-11-26T05:53:18.141Z,4.58
2018-11-26T05:56:06.056Z,4.59
2018-11-26T05:58:53.903Z,4.58
2018-11-26T06:01:41.700Z,4.53
2018-11-26T06:04:28.953Z,4.58
2018-11-26T06:07:16.743Z,4.64
2018-11-26T06:10:04.780Z,4.59
2018-11-26T06:12:54.741Z,4.59
2018-11-26T06:15:43.716Z,4.58
2018-11-26T06:18:31.530Z,4.62
2018-11-26T06:21:23.500Z,4.64
2018-11-26T06:27:28.489Z,4.57
2018-11-26T06:30:18.084Z,4.52
2018-11-26T06:33:08.953Z,4.48
2018-11-26T06:35:56.498Z,4.48
2018-11-26T06:38:48.546Z,4.50
2018-11-26T06:41:36.116Z,5.22
2018-11-26T06:44:29.699Z,5.51
2018-11-26T06:47:21.660Z,4.87
2018-11-26T06:50:10.097Z,4.80
2018-11-26T06:52:57.915Z,4.79
2018-11-26T06:55:45.584Z,4.76
2018-11-26T06:58:33.744Z,4.76
2018-11-26T07:01:23.052Z,4.70
2018-11-26T07:07:17.643Z,4.62
2018-11-26T07:10:06.766Z,5.33
2018-11-26T07:12:54.517Z,4.82
2018-11-26T07:15:45.374Z,4.61
2018-11-26T07:18:34.944Z,4.56
2018-11-26T07:21:25.337Z,4.46
2018-11-26T07:24:13.419Z,4.35
2018-11-26T07:27:02.492Z,4.30
2018-11-26T07:29:52.049Z,4.26
2018-11-26T07:32:39.433Z,4.29
2018-11-26T07:35:26.998Z,4.24
2018-11-26T07:38:14.625Z,4.20
2018-11-26T07:41:02.442Z,4.16
2018-11-26T07:43:49.970Z,4.12
2018-11-26T07:46:37.230Z,4.14
2018-11-26T07:49:25.118Z,4.95
2018-11-26T07:52:13.346Z,4.46
2018-11-26T07:55:04.490Z,4.24
2018-11-26T08:00:59.945Z,4.19
2018-11-26T08:03:50.381Z,4.22
2018-11-26T08:06:42.182Z,4.19
2018-11-26T08:09:39.991Z,4.23
2018-11-26T08:12:28.002Z,4.23
2018-11-26T08:15:18.083Z,4.15
2018-11-26T08:18:08.595Z,4.06
2018-11-26T08:24:10.014Z,3.95
2018-11-26T08:27:00.968Z,3.93
2018-11-26T08:29:49.245Z,3.89
2018-11-26T08:32:51.124Z,3.88
2018-11-26T08:35:39.884Z,3.87
2018-11-26T08:38:31.325Z,3.88
2018-11-26T08:41:18.549Z,3.88
2018-11-26T08:44:09.616Z,3.89
2018-11-26T08:50:04.318Z,3.94
2018-11-26T08:52:52.995Z,4.00
2018-11-26T08:55:43.391Z,4.03
2018-11-26T09:01:39.646Z,4.30
2018-11-26T09:04:37.542Z,4.19
2018-11-26T09:07:26.292Z,5.01
2018-11-26T09:10:14.446Z,4.37
2018-11-26T09:13:03.396Z,4.29
2018-11-26T09:15:52.117Z,4.30
2018-11-26T09:18:41.227Z,4.33
2018-11-26T09:21:29.739Z,4.35
2018-11-26T09:24:19.428Z,4.39
2018-11-26T09:27:10.067Z,4.39
2018-11-26T09:29:59.439Z,4.45
2018-11-26T09:32:50.609Z,4.50
2018-11-26T09:35:38.528Z,4.55
2018-11-26T09:41:42.245Z,4.64
2018-11-26T09:44:31.598Z,4.64
2018-11-26T09:47:28.559Z,4.65
2018-11-26T09:50:17.716Z,4.66
2018-11-26T09:53:14.301Z,5.50
2018-11-26T09:56:02.881Z,4.96
2018-11-26T09:58:52.353Z,4.93
2018-11-26T10:01:40.336Z,5.75
2018-11-26T10:04:30.371Z,5.21
2018-11-26T10:07:20.185Z,5.09
2018-11-26T10:10:08.534Z,5.07
2018-11-26T10:12:57.794Z,5.08
2018-11-26T10:15:54.369Z,4.99
2018-11-26T10:18:50.019Z,4.92
2018-11-26T10:21:38.184Z,4.92
2018-11-26T10:24:26.708Z,4.93
2018-11-26T10:27:15.956Z,4.95
2018-11-26T10:30:06.658Z,4.93
2018-11-26T10:32:56.172Z,5.74
2018-11-26T10:35:51.089Z,5.23
2018-11-26T10:38:41.214Z,5.06
2018-11-26T10:41:32.559Z,5.07
2018-11-26T10:44:27.326Z,5.02
2018-11-26T10:47:17.603Z,4.91
2018-11-26T10:53:12.886Z,4.89
2018-11-26T10:56:01.198Z,4.84
2018-11-26T10:58:49.162Z,4.83
2018-11-26T11:01:41.099Z,4.84
2018-11-26T11:04:32.041Z,4.89
2018-11-26T11:07:21.494Z,4.95
2018-11-26T11:10:10.978Z,4.97
2018-11-26T11:13:01.368Z,4.94
2018-11-26T11:15:49.515Z,4.93
2018-11-26T11:18:37.882Z,4.92
2018-11-26T11:21:25.760Z,4.85
2018-11-26T11:24:17.505Z,4.79
2018-11-26T11:27:05.137Z,4.79
2018-11-26T11:29:54.932Z,4.71
2018-11-26T11:32:46.100Z,4.66
2018-11-26T11:35:31.951Z,4.54
2018-11-26T11:38:21.307Z,4.50
2018-11-26T11:41:14.380Z,4.40
2018-11-26T11:44:04.448Z,4.44
2018-11-26T11:46:54.899Z,4.47
2018-11-26T11:49:44.906Z,5.33
2018-11-26T11:55:42.333Z,4.75
2018-11-26T11:58:30.207Z,5.54
2018-11-26T12:01:18.001Z,4.92
2018-11-26T12:04:14.974Z,4.74
2018-11-26T12:07:02.813Z,4.72
2018-11-26T12:09:52.780Z,4.71
2018-11-26T12:12:43.093Z,4.74
2018-11-26T12:15:32.172Z,4.79
2018-11-26T12:18:19.690Z,4.84
2018-11-26T12:21:06.773Z,4.86
2018-11-26T12:23:55.475Z,5.67
2018-11-26T12:26:45.105Z,5.12
2018-11-26T12:29:33.650Z,4.97
2018-11-26T12:32:21.295Z,4.99
2018-11-26T12:35:09.785Z,5.00
2018-11-26T12:38:02.323Z,5.03
2018-11-26T12:40:50.470Z,5.02
2018-11-26T12:43:40.169Z,5.08
2018-11-26T12:46:30.795Z,5.90
2018-11-26T12:49:17.942Z,5.41
2018-11-26T12:52:05.780Z,5.36
2018-11-26T12:54:52.901Z,5.31
2018-11-26T12:57:40.116Z,5.30
2018-11-26T13:00:27.508Z,5.27
2018-11-26T13:03:16.934Z,5.99
2018-11-26T13:06:04.390Z,5.45
2018-11-26T13:08:53.464Z,5.35
2018-11-26T13:11:40.968Z,6.14
2018-11-26T13:14:28.494Z,5.52
2018-11-26T13:20:24.088Z,5.39
2018-11-26T13:23:13.516Z,6.18
2018-11-26T13:26:04.464Z,5.60
2018-11-26T13:28:56.857Z,5.46
2018-11-26T13:31:47.636Z,5.37
2018-11-26T13:34:37.292Z,5.31
2018-11-26T13:37:29.133Z,5.27
2018-11-26T13:40:19.726Z,5.19
2018-11-26T13:43:09.252Z,5.16
2018-11-26T13:45:56.525Z,5.14
2018-11-26T13:48:47.200Z,5.09
2018-11-26T13:51:34.336Z,5.00
2018-11-26T13:54:21.735Z,5.03
2018-11-26T13:57:08.946Z,5.00
2018-11-26T13:59:57.751Z,4.97
2018-11-26T14:02:45.083Z,4.98
2018-11-26T14:05:32.961Z,5.73
2018-11-26T14:08:20.310Z,5.11
2018-11-26T14:11:07.632Z,5.03
2018-11-26T14:13:55.237Z,5.73
2018-11-26T14:16:43.645Z,5.14
2018-11-26T14:19:30.817Z,5.08
2018-11-26T14:25:24.329Z,4.97
2018-11-26T14:28:13.458Z,4.94
2018-11-26T14:31:00.908Z,4.92
2018-11-26T14:33:48.401Z,4.90
2018-11-26T14:36:35.655Z,4.88
2018-11-26T14:39:23.400Z,5.61
2018-11-26T14:42:11.187Z,5.85
2018-11-26T14:44:59.191Z,6.01
2018-11-26T14:47:54.733Z,5.40
2018-11-26T14:50:42.268Z,5.25
2018-11-26T14:53:29.393Z,5.90
2018-11-26T14:56:17.661Z,5.30
2018-11-26T14:59:04.674Z,5.14
2018-11-26T15:01:51.789Z,5.05
2018-11-26T15:04:39.168Z,5.02
2018-11-26T15:07:26.387Z,5.00
2018-11-26T15:10:18.218Z,4.95
2018-11-26T15:13:05.549Z,4.93
2018-11-26T15:15:53.732Z,4.90
2018-11-26T15:18:42.212Z,4.86
2018-11-26T15:21:32.246Z,4.88
2018-11-26T15:24:20.156Z,5.61
2018-11-26T15:27:07.511Z,5.16
2018-11-26T15:29:55.199Z,5.06
2018-11-26T15:32:42.606Z,5.01
2018-11-26T15:38:36.196Z,4.93
2018-11-26T15:41:23.609Z,4.91
2018-11-26T15:44:10.859Z,4.86
2018-11-26T15:46:59.797Z,4.79
2018-11-26T15:49:46.915Z,4.74
2018-11-26T15:52:34.324Z,4.71
2018-11-26T15:55:21.899Z,4.69
2018-11-26T15:58:09.397Z,4.67
2018-11-26T16:00:56.531Z,5.41
2018-11-26T16:03:43.685Z,4.96
2018-11-26T16:06:31.134Z,4.89
2018-11-26T16:09:18.232Z,4.84
2018-11-26T16:12:14.459Z,4.83
2018-11-26T16:15:00.461Z,4.83
2018-11-26T16:17:47.676Z,4.82
2018-11-26T16:20:34.935Z,5.56
2018-11-26T16:23:22.392Z,5.10
2018-11-26T16:26:10.593Z,5.01
2018-11-26T16:28:59.763Z,4.91
2018-11-26T16:31:47.123Z,4.89
2018-11-26T16:34:34.366Z,5.59
2018-11-26T16:37:25.761Z,5.83
2018-11-26T16:40:14.960Z,5.18
2018-11-26T16:43:01.866Z,5.00
2018-11-26T16:45:49.202Z,4.93
2018-11-26T16:48:36.651Z,4.84
2018-11-26T16:51:24.491Z,4.82
2018-11-26T16:54:11.671Z,4.76
2018-11-26T16:56:58.887Z,4.72
2018-11-26T16:59:46.146Z,4.71
2018-11-26T17:02:33.605Z,4.66
2018-11-26T17:05:20.908Z,4.57
2018-11-26T17:08:08.518Z,4.56
2018-11-26T17:10:55.606Z,5.24
2018-11-26T17:13:43.215Z,5.41
2018-11-26T17:16:32.071Z,4.76
2018-11-26T17:19:19.451Z,4.58
2018-11-26T17:22:07.815Z,4.54
2018-11-26T17:24:55.835Z,4.45
2018-11-26T17:27:43.073Z,4.44
2018-11-26T17:30:30.070Z,4.38
2018-11-26T17:33:17.788Z,4.33
2018-11-26T17:36:05.883Z,4.33
2018-11-26T17:38:53.667Z,5.07
2018-11-26T17:41:40.827Z,4.50
2018-11-26T17:44:28.202Z,4.36
2018-11-26T17:47:16.688Z,4.37
2018-11-26T17:50:04.311Z,4.32
2018-11-26T17:52:51.693Z,4.18
2018-11-26T17:55:42.886Z,4.98
2018-11-26T17:58:30.172Z,5.21
2018-11-26T18:01:17.569Z,4.57
2018-11-26T18:04:04.801Z,4.46
2018-11-26T18:06:51.818Z,4.38
2018-11-26T18:12:46.410Z,4.21
2018-11-26T18:15:33.381Z,4.18
2018-11-26T18:18:20.905Z,4.12
2018-11-26T18:21:08.268Z,4.85
2018-11-26T18:23:56.081Z,4.34
2018-11-26T18:26:43.351Z,4.94
2018-11-26T18:29:30.840Z,4.27
2018-11-26T18:32:18.057Z,4.11
2018-11-26T18:35:05.277Z,4.01
2018-11-26T18:37:52.674Z,3.92
2018-11-26T18:40:40.365Z,3.86
2018-11-26T18:43:27.663Z,4.60
2018-11-26T18:46:15.503Z,4.04
2018-11-26T18:52:12.117Z,4.92
2018-11-26T18:55:07.703Z,4.22
2018-11-26T18:57:55.011Z,4.04
2018-11-26T19:00:43.048Z,3.95
2018-11-26T19:03:30.348Z,3.87
2018-11-26T19:06:18.043Z,3.82
2018-11-26T19:09:06.481Z,3.80
2018-11-26T19:11:53.551Z,3.77
2018-11-26T19:14:40.923Z,3.74
2018-11-26T19:17:28.272Z,3.69
2018-11-26T19:20:15.818Z,3.69
2018-11-26T19:23:02.829Z,3.65
2018-11-26T19:25:50.302Z,3.63
2018-11-26T19:28:45.395Z,4.35
2018-11-26T19:34:39.710Z,3.72
2018-11-26T19:37:27.282Z,3.68
2018-11-26T19:40:14.687Z,3.65
2018-11-26T19:43:01.887Z,3.64
2018-11-26T19:45:49.225Z,3.63
2018-11-26T19:48:36.963Z,4.33
2018-11-26T19:51:24.216Z,3.83
2018-11-26T20:00:25.163Z,3.64
2018-11-26T20:03:13.411Z,3.61
2018-11-26T20:06:00.631Z,3.58
2018-11-26T20:08:48.458Z,3.58
2018-11-26T20:11:37.994Z,3.53
2018-11-26T20:14:26.075Z,3.50
2018-11-26T20:17:16.484Z,3.51
2018-11-26T20:20:05.209Z,3.50
2018-11-26T20:22:55.445Z,3.50
2018-11-26T20:25:46.369Z,3.49
2018-11-26T20:28:33.699Z,3.49
2018-11-26T20:31:21.113Z,3.45
2018-11-26T20:34:09.088Z,3.46
2018-11-26T20:36:57.109Z,3.45
2018-11-26T20:39:44.323Z,3.45
2018-11-26T20:42:31.662Z,3.44
2018-11-26T20:45:18.957Z,3.41
2018-11-26T20:48:06.354Z,3.40
2018-11-26T20:51:09.549Z,3.39
2018-11-26T20:53:56.904Z,3.37
2018-11-26T20:56:44.285Z,3.36
2018-11-26T20:59:34.200Z,3.37
2018-11-26T21:02:23.137Z,3.37
2018-11-26T21:05:10.457Z,3.35
2018-11-26T21:07:58.288Z,3.34
2018-11-26T21:10:46.159Z,3.36
2018-11-26T21:13:34.270Z,3.37
2018-11-26T21:19:28.387Z,3.34
2018-11-26T21:22:15.867Z,3.33
2018-11-26T21:28:10.124Z,3.54
2018-11-26T21:31:06.610Z,3.45
2018-11-26T21:33:54.503Z,3.45
2018-11-26T21:39:49.231Z,3.35
2018-11-26T21:42:36.145Z,3.28
2018-11-26T21:45:23.671Z,3.28
2018-11-26T21:48:10.689Z,4.02
2018-11-26T21:51:00.343Z,3.55
2018-11-26T21:53:47.670Z,4.19
2018-11-26T21:56:36.243Z,4.41
2018-11-26T21:59:23.681Z,3.78
2018-11-26T22:02:10.752Z,3.67
2018-11-26T22:04:57.912Z,3.53
2018-11-26T22:07:45.431Z,3.49
2018-11-26T22:10:32.757Z,3.46
2018-11-26T22:13:20.257Z,3.41
2018-11-26T22:16:07.649Z,3.33
2018-11-26T22:18:54.921Z,3.30
2018-11-26T22:21:42.056Z,3.26
2018-11-26T22:24:29.564Z,3.26
2018-11-26T22:27:16.879Z,3.22
2018-11-26T22:30:05.629Z,3.19
2018-11-26T22:32:52.589Z,3.17
2018-11-26T22:35:40.104Z,3.20
2018-11-26T22:38:27.079Z,3.15
2018-11-26T22:50:32.821Z,3.90
2018-11-26T22:53:23.908Z,4.16
2018-11-26T22:56:11.079Z,3.63
2018-11-26T22:58:59.963Z,3.45
2018-11-26T23:01:55.250Z,4.16
2018-11-26T23:04:42.193Z,3.57
2018-11-26T23:07:29.355Z,3.46
2018-11-26T23:10:16.950Z,4.15
2018-11-26T23:13:04.151Z,3.62
2018-11-26T23:22:05.647Z,3.35
2018-11-26T23:24:52.874Z,3.35
2018-11-26T23:27:41.266Z,3.28
2018-11-26T23:30:28.694Z,3.27
2018-11-26T23:33:16.059Z,3.27
2018-11-26T23:36:03.212Z,3.28
2018-11-26T23:38:50.685Z,3.30
2018-11-26T23:41:37.924Z,3.29
2018-11-26T23:44:25.122Z,3.33
2018-11-26T23:47:12.922Z,3.35
2018-11-26T23:50:00.266Z,4.09
2018-11-26T23:52:47.642Z,3.60
2018-11-26T23:55:35.056Z,3.50
2018-11-26T23:58:23.605Z,3.46
